createdAt,value
2018-03-27T00:00:03.626Z,360
2018-03-27T00:00:15.847Z,360
2018-03-27T00:00:27.996Z,360
2018-03-27T00:00:40.127Z,360
2018-03-27T00:00:52.281Z,360
2018-03-27T00:01:04.438Z,360
2018-03-27T00:01:16.627Z,360
2018-03-27T00:01:28.784Z,360
2018-03-27T00:01:41.031Z,9
2018-03-27T00:01:53.184Z,5
2018-03-27T00:02:05.316Z,5
2018-03-27T00:02:17.444Z,5
2018-03-27T00:02:29.585Z,5
2018-03-27T00:02:41.780Z,9
2018-03-27T00:02:53.926Z,18
2018-03-27T00:03:06.161Z,19
2018-03-27T00:03:18.293Z,19
2018-03-27T00:03:30.433Z,19
2018-03-27T00:03:42.555Z,11
2018-03-27T00:03:54.738Z,5
2018-03-27T00:04:06.871Z,10
2018-03-27T00:04:19.004Z,17
2018-03-27T00:04:31.163Z,38
2018-03-27T00:04:43.303Z,15
2018-03-27T00:04:55.463Z,30
2018-03-27T00:05:07.635Z,36
2018-03-27T00:05:20.046Z,16
2018-03-27T00:05:32.206Z,9
2018-03-27T00:05:44.337Z,27
2018-03-27T00:05:56.472Z,39
2018-03-27T00:06:08.598Z,39
2018-03-27T00:06:20.788Z,5
2018-03-27T00:06:32.985Z,17
2018-03-27T00:06:45.194Z,18
2018-03-27T00:06:57.326Z,18
2018-03-27T00:07:09.499Z,360
2018-03-27T00:07:21.637Z,360
2018-03-27T00:07:33.806Z,360
2018-03-27T00:07:45.940Z,360
2018-03-27T00:07:58.076Z,5
2018-03-27T00:08:10.262Z,9
2018-03-27T00:08:22.450Z,10
2018-03-27T00:08:34.590Z,11
2018-03-27T00:08:46.731Z,15
2018-03-27T00:08:58.866Z,15
2018-03-27T00:09:10.990Z,15
2018-03-27T00:09:23.155Z,15
2018-03-27T00:09:35.294Z,15
2018-03-27T00:09:47.502Z,15
2018-03-27T00:09:59.708Z,15
2018-03-27T00:10:11.878Z,15
2018-03-27T00:10:24.030Z,15
2018-03-27T00:10:36.321Z,15
2018-03-27T00:10:48.474Z,15
2018-03-27T00:11:00.639Z,15
2018-03-27T00:11:12.825Z,31
2018-03-27T00:11:24.963Z,32
2018-03-27T00:11:37.088Z,15
2018-03-27T00:11:49.237Z,14
2018-03-27T00:12:01.378Z,22
2018-03-27T00:12:13.541Z,9
2018-03-27T00:12:25.669Z,10
2018-03-27T00:12:38.210Z,10
2018-03-27T00:12:50.512Z,38
2018-03-27T00:13:02.675Z,31
2018-03-27T00:13:14.870Z,37
2018-03-27T00:13:27.078Z,37
2018-03-27T00:13:39.207Z,37
2018-03-27T00:13:52.333Z,37
2018-03-27T00:14:04.462Z,37
2018-03-27T00:14:16.594Z,34
2018-03-27T00:14:28.733Z,32
2018-03-27T00:14:40.863Z,32
2018-03-27T00:14:53.000Z,32
2018-03-27T00:15:05.136Z,32
2018-03-27T00:15:17.275Z,32
2018-03-27T00:15:29.462Z,32
2018-03-27T00:15:41.604Z,32
2018-03-27T00:15:53.741Z,32
2018-03-27T00:16:06.086Z,32
2018-03-27T00:16:18.221Z,28
2018-03-27T00:16:30.649Z,28
2018-03-27T00:16:42.854Z,15
2018-03-27T00:16:55.013Z,351
2018-03-27T00:17:07.300Z,350
2018-03-27T00:17:19.427Z,342
2018-03-27T00:17:31.556Z,342
2018-03-27T00:17:43.796Z,344
2018-03-27T00:17:55.937Z,344
2018-03-27T00:18:08.079Z,344
2018-03-27T00:18:20.274Z,344
2018-03-27T00:18:32.411Z,344
2018-03-27T00:18:44.553Z,344
2018-03-27T00:18:56.697Z,344
2018-03-27T00:19:08.847Z,344
2018-03-27T00:19:20.990Z,343
2018-03-27T00:19:33.119Z,343
2018-03-27T00:19:45.254Z,345
2018-03-27T00:19:57.401Z,345
2018-03-27T00:20:09.579Z,9
2018-03-27T00:20:21.748Z,9
2018-03-27T00:20:33.867Z,15
2018-03-27T00:20:46.003Z,29
2018-03-27T00:20:58.161Z,17
2018-03-27T00:21:10.331Z,15
2018-03-27T00:21:22.466Z,25
2018-03-27T00:21:34.605Z,22
2018-03-27T00:21:46.749Z,9
2018-03-27T00:21:58.906Z,5
2018-03-27T00:22:11.050Z,5
2018-03-27T00:22:23.189Z,5
2018-03-27T00:22:35.317Z,5
2018-03-27T00:22:47.685Z,360
2018-03-27T00:22:59.807Z,360
2018-03-27T00:23:11.966Z,360
2018-03-27T00:23:24.107Z,360
2018-03-27T00:23:36.243Z,26
2018-03-27T00:23:48.431Z,338
2018-03-27T00:24:00.558Z,317
2018-03-27T00:24:12.697Z,310
2018-03-27T00:24:24.841Z,340
2018-03-27T00:24:36.964Z,5
2018-03-27T00:24:49.111Z,5
2018-03-27T00:25:01.263Z,18
2018-03-27T00:25:13.409Z,5
2018-03-27T00:25:25.553Z,5
2018-03-27T00:25:37.690Z,5
2018-03-27T00:25:49.839Z,5
2018-03-27T00:26:02.024Z,5
2018-03-27T00:26:14.157Z,5
2018-03-27T00:26:26.304Z,5
2018-03-27T00:26:38.480Z,5
2018-03-27T00:26:50.610Z,5
2018-03-27T00:27:02.759Z,5
2018-03-27T00:27:14.912Z,5
2018-03-27T00:27:27.043Z,5
2018-03-27T00:27:39.175Z,5
2018-03-27T00:27:51.423Z,28
2018-03-27T00:28:03.588Z,55
2018-03-27T00:28:15.725Z,16
2018-03-27T00:28:27.930Z,19
2018-03-27T00:28:40.076Z,17
2018-03-27T00:28:52.303Z,15
2018-03-27T00:29:04.447Z,15
2018-03-27T00:29:16.603Z,14
2018-03-27T00:29:28.749Z,5
2018-03-27T00:29:40.903Z,360
2018-03-27T00:29:53.091Z,360
2018-03-27T00:30:05.228Z,13
2018-03-27T00:30:17.383Z,355
2018-03-27T00:30:29.587Z,346
2018-03-27T00:30:41.760Z,342
2018-03-27T00:30:53.907Z,355
2018-03-27T00:31:06.054Z,325
2018-03-27T00:31:18.197Z,348
2018-03-27T00:31:30.327Z,350
2018-03-27T00:31:42.510Z,347
2018-03-27T00:31:54.658Z,345
2018-03-27T00:32:06.793Z,338
2018-03-27T00:32:18.994Z,338
2018-03-27T00:32:31.126Z,338
2018-03-27T00:32:43.283Z,342
2018-03-27T00:32:55.463Z,344
2018-03-27T00:33:07.577Z,349
2018-03-27T00:33:19.725Z,346
2018-03-27T00:33:31.859Z,346
2018-03-27T00:33:44.013Z,346
2018-03-27T00:33:56.162Z,334
2018-03-27T00:34:08.310Z,348
2018-03-27T00:34:20.486Z,348
2018-03-27T00:34:32.755Z,355
2018-03-27T00:34:44.897Z,355
2018-03-27T00:34:57.046Z,355
2018-03-27T00:35:09.181Z,355
2018-03-27T00:35:21.333Z,350
2018-03-27T00:35:33.493Z,360
2018-03-27T00:35:45.638Z,10
2018-03-27T00:35:57.786Z,10
2018-03-27T00:36:09.931Z,12
2018-03-27T00:36:22.124Z,33
2018-03-27T00:36:34.260Z,355
2018-03-27T00:36:46.397Z,360
2018-03-27T00:36:58.540Z,331
2018-03-27T00:37:10.682Z,311
2018-03-27T00:37:22.812Z,330
2018-03-27T00:37:35.146Z,330
2018-03-27T00:37:47.284Z,360
2018-03-27T00:37:59.413Z,360
2018-03-27T00:38:11.558Z,355
2018-03-27T00:38:23.694Z,338
2018-03-27T00:38:35.842Z,360
2018-03-27T00:38:47.979Z,344
2018-03-27T00:39:00.126Z,355
2018-03-27T00:39:12.280Z,328
2018-03-27T00:39:24.408Z,333
2018-03-27T00:39:36.581Z,333
2018-03-27T00:39:48.734Z,333
2018-03-27T00:40:00.911Z,333
2018-03-27T00:40:13.040Z,30
2018-03-27T00:40:25.189Z,30
2018-03-27T00:40:37.342Z,30
2018-03-27T00:40:49.507Z,32
2018-03-27T00:41:02.033Z,9
2018-03-27T00:41:14.660Z,34
2018-03-27T00:41:26.780Z,16
2018-03-27T00:41:38.983Z,360
2018-03-27T00:41:51.110Z,12
2018-03-27T00:42:03.250Z,12
2018-03-27T00:42:15.407Z,5
2018-03-27T00:42:27.530Z,5
2018-03-27T00:42:39.674Z,5
2018-03-27T00:42:51.826Z,5
2018-03-27T00:43:03.981Z,10
2018-03-27T00:43:16.108Z,23
2018-03-27T00:43:28.238Z,32
2018-03-27T00:43:40.387Z,37
2018-03-27T00:43:52.521Z,37
2018-03-27T00:44:04.672Z,36
2018-03-27T00:44:16.818Z,22
2018-03-27T00:44:28.944Z,22
2018-03-27T00:44:41.087Z,9
2018-03-27T00:44:53.258Z,339
2018-03-27T00:45:05.402Z,342
2018-03-27T00:45:17.567Z,342
2018-03-27T00:45:29.701Z,330
2018-03-27T00:45:41.858Z,330
2018-03-27T00:45:54.060Z,360
2018-03-27T00:46:06.188Z,360
2018-03-27T00:46:18.392Z,360
2018-03-27T00:46:30.529Z,360
2018-03-27T00:46:42.665Z,360
2018-03-27T00:46:54.914Z,355
2018-03-27T00:47:07.061Z,355
2018-03-27T00:47:19.246Z,5
2018-03-27T00:47:31.400Z,13
2018-03-27T00:47:43.532Z,14
2018-03-27T00:47:55.918Z,22
2018-03-27T00:48:08.081Z,19
2018-03-27T00:48:20.233Z,24
2018-03-27T00:48:32.363Z,11
2018-03-27T00:48:44.483Z,9
2018-03-27T00:48:56.622Z,9
2018-03-27T00:49:08.752Z,9
2018-03-27T00:49:20.956Z,9
2018-03-27T00:49:33.094Z,9
2018-03-27T00:49:45.229Z,5
2018-03-27T00:49:57.370Z,355
2018-03-27T00:50:09.510Z,360
2018-03-27T00:50:21.647Z,30
2018-03-27T00:50:33.804Z,54
2018-03-27T00:50:45.968Z,46
2018-03-27T00:50:58.101Z,26
2018-03-27T00:51:10.236Z,26
2018-03-27T00:51:22.370Z,22
2018-03-27T00:51:34.495Z,21
2018-03-27T00:51:46.622Z,21
2018-03-27T00:51:58.776Z,20
2018-03-27T00:52:10.985Z,351
2018-03-27T00:52:23.145Z,355
2018-03-27T00:52:35.288Z,360
2018-03-27T00:52:47.433Z,355
2018-03-27T00:52:59.878Z,336
2018-03-27T00:53:12.091Z,336
2018-03-27T00:53:24.237Z,347
2018-03-27T00:53:36.374Z,317
2018-03-27T00:53:48.522Z,317
2018-03-27T00:54:00.648Z,317
2018-03-27T00:54:12.812Z,321
2018-03-27T00:54:24.968Z,355
2018-03-27T00:54:37.104Z,355
2018-03-27T00:54:49.274Z,306
2018-03-27T00:55:01.670Z,319
2018-03-27T00:55:13.839Z,325
2018-03-27T00:55:26.048Z,325
2018-03-27T00:55:38.192Z,333
2018-03-27T00:55:50.336Z,355
2018-03-27T00:56:02.482Z,355
2018-03-27T00:56:14.625Z,28
2018-03-27T00:56:26.760Z,5
2018-03-27T00:56:38.904Z,10
2018-03-27T00:56:51.184Z,5
2018-03-27T00:57:03.308Z,355
2018-03-27T00:57:15.455Z,355
2018-03-27T00:57:27.622Z,360
2018-03-27T00:57:39.797Z,360
2018-03-27T00:57:51.988Z,55
2018-03-27T00:58:04.165Z,32
2018-03-27T00:58:16.291Z,28
2018-03-27T00:58:28.415Z,36
2018-03-27T00:58:40.541Z,49
2018-03-27T00:58:52.661Z,22
2018-03-27T00:59:04.805Z,22
2018-03-27T00:59:16.939Z,22
2018-03-27T00:59:29.062Z,33
2018-03-27T00:59:41.193Z,20
2018-03-27T00:59:53.372Z,18
2018-03-27T01:00:05.511Z,18
2018-03-27T01:00:17.680Z,18
2018-03-27T01:00:29.828Z,18
2018-03-27T01:00:41.969Z,24
2018-03-27T01:00:54.104Z,28
2018-03-27T01:01:06.246Z,13
2018-03-27T01:01:18.378Z,13
2018-03-27T01:01:30.509Z,13
2018-03-27T01:01:42.655Z,13
2018-03-27T01:01:54.924Z,13
2018-03-27T01:02:07.074Z,13
2018-03-27T01:02:19.226Z,13
2018-03-27T01:02:31.342Z,13
2018-03-27T01:02:43.515Z,13
2018-03-27T01:02:55.648Z,5
2018-03-27T01:03:07.783Z,5
2018-03-27T01:03:19.929Z,5
2018-03-27T01:03:32.114Z,5
2018-03-27T01:03:44.242Z,344
2018-03-27T01:03:56.377Z,344
2018-03-27T01:04:08.606Z,341
2018-03-27T01:04:20.751Z,319
2018-03-27T01:04:32.881Z,319
2018-03-27T01:04:45.136Z,332
2018-03-27T01:04:57.283Z,348
2018-03-27T01:05:09.460Z,349
2018-03-27T01:05:21.608Z,349
2018-03-27T01:05:33.780Z,349
2018-03-27T01:05:45.916Z,349
2018-03-27T01:05:58.044Z,349
2018-03-27T01:06:10.186Z,329
2018-03-27T01:06:22.327Z,329
2018-03-27T01:06:34.447Z,329
2018-03-27T01:06:46.602Z,329
2018-03-27T01:06:58.782Z,329
2018-03-27T01:07:10.915Z,329
2018-03-27T01:07:23.059Z,329
2018-03-27T01:07:35.176Z,329
2018-03-27T01:07:47.331Z,329
2018-03-27T01:07:59.497Z,329
2018-03-27T01:08:11.651Z,329
2018-03-27T01:08:23.780Z,329
2018-03-27T01:08:35.900Z,329
2018-03-27T01:08:48.091Z,338
2018-03-27T01:09:00.274Z,57
2018-03-27T01:09:12.411Z,19
2018-03-27T01:09:24.579Z,18
2018-03-27T01:09:36.712Z,27
2018-03-27T01:09:48.857Z,5
2018-03-27T01:10:01.024Z,5
2018-03-27T01:10:13.166Z,5
2018-03-27T01:10:25.311Z,5
2018-03-27T01:10:37.469Z,355
2018-03-27T01:10:49.592Z,328
2018-03-27T01:11:01.738Z,336
2018-03-27T01:11:13.876Z,336
2018-03-27T01:11:26.003Z,336
2018-03-27T01:11:38.159Z,342
2018-03-27T01:11:50.376Z,345
2018-03-27T01:12:02.822Z,345
2018-03-27T01:12:14.969Z,345
2018-03-27T01:12:27.107Z,345
2018-03-27T01:12:39.265Z,9
2018-03-27T01:12:51.505Z,5
2018-03-27T01:13:03.658Z,360
2018-03-27T01:13:15.849Z,360
2018-03-27T01:13:28.055Z,349
2018-03-27T01:13:40.195Z,349
2018-03-27T01:13:52.346Z,346
2018-03-27T01:14:04.497Z,346
2018-03-27T01:14:16.643Z,346
2018-03-27T01:14:28.815Z,355
2018-03-27T01:14:40.998Z,9
2018-03-27T01:14:53.203Z,5
2018-03-27T01:15:05.363Z,5
2018-03-27T01:15:17.520Z,5
2018-03-27T01:15:29.726Z,5
2018-03-27T01:15:41.865Z,9
2018-03-27T01:15:53.997Z,9
2018-03-27T01:16:06.146Z,355
2018-03-27T01:16:18.321Z,332
2018-03-27T01:16:30.494Z,355
2018-03-27T01:16:42.631Z,350
2018-03-27T01:16:54.786Z,350
2018-03-27T01:17:06.923Z,334
2018-03-27T01:17:19.081Z,340
2018-03-27T01:17:31.218Z,342
2018-03-27T01:17:43.355Z,321
2018-03-27T01:17:55.540Z,345
2018-03-27T01:18:07.678Z,336
2018-03-27T01:18:19.838Z,326
2018-03-27T01:18:32.029Z,331
2018-03-27T01:18:44.148Z,331
2018-03-27T01:18:56.298Z,5
2018-03-27T01:19:08.489Z,44
2018-03-27T01:19:20.688Z,35
2018-03-27T01:19:32.832Z,27
2018-03-27T01:19:45.039Z,19
2018-03-27T01:19:57.169Z,25
2018-03-27T01:20:09.361Z,26
2018-03-27T01:20:21.502Z,9
2018-03-27T01:20:33.634Z,16
2018-03-27T01:20:45.790Z,19
2018-03-27T01:20:57.930Z,27
2018-03-27T01:21:10.084Z,15
2018-03-27T01:21:22.216Z,14
2018-03-27T01:21:34.346Z,13
2018-03-27T01:21:46.531Z,13
2018-03-27T01:21:58.664Z,13
2018-03-27T01:22:10.792Z,13
2018-03-27T01:22:22.955Z,18
2018-03-27T01:22:35.087Z,13
2018-03-27T01:22:47.221Z,13
2018-03-27T01:22:59.610Z,12
2018-03-27T01:23:11.761Z,12
2018-03-27T01:23:23.915Z,12
2018-03-27T01:23:36.133Z,5
2018-03-27T01:23:48.328Z,360
2018-03-27T01:24:00.493Z,9
2018-03-27T01:24:12.645Z,32
2018-03-27T01:24:24.870Z,9
2018-03-27T01:24:37.062Z,348
2018-03-27T01:24:49.195Z,34
2018-03-27T01:25:01.338Z,14
2018-03-27T01:25:13.469Z,11
2018-03-27T01:25:25.634Z,12
2018-03-27T01:25:37.786Z,12
2018-03-27T01:25:49.926Z,355
2018-03-27T01:26:02.055Z,360
2018-03-27T01:26:14.186Z,12
2018-03-27T01:26:26.315Z,12
2018-03-27T01:26:38.498Z,21
2018-03-27T01:26:50.617Z,22
2018-03-27T01:27:02.739Z,28
2018-03-27T01:27:14.879Z,28
2018-03-27T01:27:27.072Z,23
2018-03-27T01:27:39.201Z,18
2018-03-27T01:27:51.331Z,11
2018-03-27T01:28:03.509Z,15
2018-03-27T01:28:15.667Z,10
2018-03-27T01:28:27.811Z,27
2018-03-27T01:28:39.927Z,35
2018-03-27T01:28:52.050Z,45
2018-03-27T01:29:04.198Z,42
2018-03-27T01:29:16.329Z,42
2018-03-27T01:29:28.523Z,36
2018-03-27T01:29:40.647Z,23
2018-03-27T01:29:52.818Z,27
2018-03-27T01:30:04.984Z,30
2018-03-27T01:30:17.123Z,5
2018-03-27T01:30:29.256Z,5
2018-03-27T01:30:41.415Z,360
2018-03-27T01:30:53.530Z,360
2018-03-27T01:31:05.674Z,360
2018-03-27T01:31:17.811Z,360
2018-03-27T01:31:30.010Z,360
2018-03-27T01:31:42.146Z,360
2018-03-27T01:31:54.290Z,360
2018-03-27T01:32:06.419Z,360
2018-03-27T01:32:18.598Z,360
2018-03-27T01:32:30.746Z,11
2018-03-27T01:32:42.877Z,13
2018-03-27T01:32:55.063Z,13
2018-03-27T01:33:07.191Z,23
2018-03-27T01:33:19.413Z,12
2018-03-27T01:33:31.610Z,9
2018-03-27T01:33:43.745Z,13
2018-03-27T01:33:55.876Z,12
2018-03-27T01:34:07.997Z,12
2018-03-27T01:34:20.165Z,12
2018-03-27T01:34:32.302Z,12
2018-03-27T01:34:44.449Z,14
2018-03-27T01:34:56.619Z,11
2018-03-27T01:35:08.830Z,355
2018-03-27T01:35:20.994Z,334
2018-03-27T01:35:33.196Z,330
2018-03-27T01:35:45.322Z,327
2018-03-27T01:35:57.449Z,323
2018-03-27T01:36:09.598Z,313
2018-03-27T01:36:21.752Z,318
2018-03-27T01:36:34.114Z,331
2018-03-27T01:36:46.270Z,331
2018-03-27T01:36:58.406Z,336
2018-03-27T01:37:10.557Z,337
2018-03-27T01:37:22.696Z,337
2018-03-27T01:37:34.992Z,337
2018-03-27T01:37:47.155Z,355
2018-03-27T01:37:59.285Z,355
2018-03-27T01:38:11.490Z,355
2018-03-27T01:38:23.634Z,355
2018-03-27T01:38:35.759Z,355
2018-03-27T01:38:47.944Z,355
2018-03-27T01:39:00.091Z,355
2018-03-27T01:39:12.233Z,355
2018-03-27T01:39:24.380Z,355
2018-03-27T01:39:36.514Z,355
2018-03-27T01:39:48.676Z,360
2018-03-27T01:40:00.837Z,9
2018-03-27T01:40:12.968Z,9
2018-03-27T01:40:25.091Z,10
2018-03-27T01:40:37.226Z,38
2018-03-27T01:40:49.373Z,18
2018-03-27T01:41:01.702Z,17
2018-03-27T01:41:13.961Z,11
2018-03-27T01:41:26.124Z,360
2018-03-27T01:41:38.249Z,360
2018-03-27T01:41:50.429Z,360
2018-03-27T01:42:02.560Z,355
2018-03-27T01:42:14.728Z,355
2018-03-27T01:42:26.870Z,355
2018-03-27T01:42:39.028Z,360
2018-03-27T01:42:51.149Z,360
2018-03-27T01:43:03.291Z,336
2018-03-27T01:43:15.434Z,337
2018-03-27T01:43:27.702Z,311
2018-03-27T01:43:39.841Z,323
2018-03-27T01:43:51.998Z,327
2018-03-27T01:44:04.145Z,350
2018-03-27T01:44:16.285Z,327
2018-03-27T01:44:28.430Z,333
2018-03-27T01:44:40.575Z,340
2018-03-27T01:44:52.737Z,340
2018-03-27T01:45:04.884Z,340
2018-03-27T01:45:17.040Z,326
2018-03-27T01:45:29.170Z,326
2018-03-27T01:45:41.327Z,326
2018-03-27T01:45:53.463Z,326
2018-03-27T01:46:05.601Z,326
2018-03-27T01:46:17.753Z,326
2018-03-27T01:46:29.915Z,326
2018-03-27T01:46:42.043Z,327
2018-03-27T01:46:54.200Z,331
2018-03-27T01:47:06.415Z,332
2018-03-27T01:47:18.548Z,332
2018-03-27T01:47:30.675Z,340
2018-03-27T01:47:42.874Z,340
2018-03-27T01:47:55.105Z,320
2018-03-27T01:48:07.237Z,320
2018-03-27T01:48:19.378Z,320
2018-03-27T01:48:31.513Z,355
2018-03-27T01:48:43.654Z,338
2018-03-27T01:48:55.793Z,329
2018-03-27T01:49:07.944Z,337
2018-03-27T01:49:20.091Z,289
2018-03-27T01:49:32.281Z,296
2018-03-27T01:49:44.428Z,297
2018-03-27T01:49:56.575Z,298
2018-03-27T01:50:08.735Z,308
2018-03-27T01:50:20.922Z,344
2018-03-27T01:50:33.058Z,337
2018-03-27T01:50:45.207Z,11
2018-03-27T01:50:57.329Z,329
2018-03-27T01:51:09.512Z,300
2018-03-27T01:51:21.679Z,307
2018-03-27T01:51:33.843Z,324
2018-03-27T01:51:45.965Z,317
2018-03-27T01:51:58.099Z,322
2018-03-27T01:52:10.229Z,321
2018-03-27T01:52:22.372Z,321
2018-03-27T01:52:34.516Z,321
2018-03-27T01:52:46.687Z,321
2018-03-27T01:52:59.358Z,321
2018-03-27T01:53:11.549Z,321
2018-03-27T01:53:23.714Z,321
2018-03-27T01:53:35.849Z,321
2018-03-27T01:53:48.013Z,319
2018-03-27T01:54:00.181Z,355
2018-03-27T01:54:12.360Z,355
2018-03-27T01:54:24.683Z,355
2018-03-27T01:54:36.838Z,355
2018-03-27T01:54:48.981Z,355
2018-03-27T01:55:01.274Z,355
2018-03-27T01:55:13.472Z,355
2018-03-27T01:55:25.634Z,350
2018-03-27T01:55:37.777Z,350
2018-03-27T01:55:49.902Z,341
2018-03-27T01:56:02.034Z,347
2018-03-27T01:56:14.182Z,340
2018-03-27T01:56:26.392Z,340
2018-03-27T01:56:38.554Z,351
2018-03-27T01:56:50.809Z,351
2018-03-27T01:57:02.944Z,351
2018-03-27T01:57:15.090Z,13
2018-03-27T01:57:27.227Z,13
2018-03-27T01:57:39.356Z,338
2018-03-27T01:57:51.491Z,338
2018-03-27T01:58:03.635Z,325
2018-03-27T01:58:15.796Z,325
2018-03-27T01:58:27.911Z,325
2018-03-27T01:58:40.092Z,355
2018-03-27T01:58:52.217Z,333
2018-03-27T01:59:04.360Z,333
2018-03-27T01:59:16.491Z,360
2018-03-27T01:59:28.742Z,360
2018-03-27T01:59:40.877Z,351
2018-03-27T01:59:53.012Z,351
2018-03-27T02:00:05.156Z,333
2018-03-27T02:00:17.313Z,333
2018-03-27T02:00:29.527Z,344
2018-03-27T02:00:41.665Z,344
2018-03-27T02:00:53.849Z,344
2018-03-27T02:01:06.000Z,344
2018-03-27T02:01:18.130Z,344
2018-03-27T02:01:30.320Z,348
2018-03-27T02:01:42.439Z,348
2018-03-27T02:01:54.660Z,347
2018-03-27T02:02:06.808Z,347
2018-03-27T02:02:18.937Z,323
2018-03-27T02:02:31.089Z,333
2018-03-27T02:02:43.222Z,336
2018-03-27T02:02:55.342Z,302
2018-03-27T02:03:07.471Z,309
2018-03-27T02:03:19.602Z,306
2018-03-27T02:03:31.745Z,303
2018-03-27T02:03:43.886Z,306
2018-03-27T02:03:56.179Z,303
2018-03-27T02:04:08.362Z,294
2018-03-27T02:04:20.513Z,321
2018-03-27T02:04:32.665Z,292
2018-03-27T02:04:44.815Z,294
2018-03-27T02:04:56.946Z,320
2018-03-27T02:05:09.127Z,310
2018-03-27T02:05:21.543Z,285
2018-03-27T02:05:33.684Z,306
2018-03-27T02:05:45.817Z,294
2018-03-27T02:05:57.953Z,298
2018-03-27T02:06:10.076Z,306
2018-03-27T02:06:22.204Z,309
2018-03-27T02:06:34.357Z,303
2018-03-27T02:06:46.481Z,319
2018-03-27T02:06:58.629Z,312
2018-03-27T02:07:10.857Z,303
2018-03-27T02:07:23.019Z,302
2018-03-27T02:07:35.162Z,302
2018-03-27T02:07:47.351Z,300
2018-03-27T02:07:59.506Z,300
2018-03-27T02:08:11.630Z,300
2018-03-27T02:08:23.787Z,338
2018-03-27T02:08:35.968Z,13
2018-03-27T02:08:48.106Z,360
2018-03-27T02:09:00.354Z,355
2018-03-27T02:09:12.544Z,355
2018-03-27T02:09:24.674Z,342
2018-03-27T02:09:36.808Z,342
2018-03-27T02:09:48.953Z,328
2018-03-27T02:10:01.085Z,317
2018-03-27T02:10:13.261Z,350
2018-03-27T02:10:26.445Z,350
2018-03-27T02:10:38.652Z,27
2018-03-27T02:10:50.811Z,349
2018-03-27T02:11:02.951Z,360
2018-03-27T02:11:15.134Z,360
2018-03-27T02:11:27.332Z,342
2018-03-27T02:11:39.479Z,312
2018-03-27T02:11:51.599Z,346
2018-03-27T02:12:03.735Z,342
2018-03-27T02:12:15.933Z,326
2018-03-27T02:12:28.071Z,328
2018-03-27T02:12:40.205Z,347
2018-03-27T02:12:52.496Z,344
2018-03-27T02:13:04.647Z,323
2018-03-27T02:13:16.845Z,323
2018-03-27T02:13:29.061Z,324
2018-03-27T02:13:41.246Z,335
2018-03-27T02:13:53.397Z,307
2018-03-27T02:14:05.546Z,327
2018-03-27T02:14:17.697Z,342
2018-03-27T02:14:29.880Z,336
2018-03-27T02:14:41.993Z,340
2018-03-27T02:14:54.122Z,322
2018-03-27T02:15:06.272Z,336
2018-03-27T02:15:18.403Z,294
2018-03-27T02:15:30.523Z,351
2018-03-27T02:15:42.871Z,355
2018-03-27T02:15:55.193Z,12
2018-03-27T02:16:07.476Z,26
2018-03-27T02:16:19.598Z,26
2018-03-27T02:16:31.801Z,23
2018-03-27T02:16:43.932Z,23
2018-03-27T02:16:56.080Z,355
2018-03-27T02:17:08.210Z,355
2018-03-27T02:17:20.342Z,319
2018-03-27T02:17:32.533Z,329
2018-03-27T02:17:44.696Z,333
2018-03-27T02:17:56.832Z,332
2018-03-27T02:18:08.966Z,332
2018-03-27T02:18:21.104Z,329
2018-03-27T02:18:33.276Z,329
2018-03-27T02:18:45.409Z,329
2018-03-27T02:18:57.547Z,321
2018-03-27T02:19:09.700Z,321
2018-03-27T02:19:21.863Z,304
2018-03-27T02:19:34.061Z,302
2018-03-27T02:19:46.206Z,296
2018-03-27T02:19:58.340Z,305
2018-03-27T02:20:10.471Z,300
2018-03-27T02:20:22.638Z,273
2018-03-27T02:20:34.780Z,288
2018-03-27T02:20:46.916Z,288
2018-03-27T02:20:59.063Z,296
2018-03-27T02:21:11.194Z,300
2018-03-27T02:21:23.389Z,313
2018-03-27T02:21:35.508Z,303
2018-03-27T02:21:47.658Z,321
2018-03-27T02:21:59.790Z,317
2018-03-27T02:22:11.932Z,319
2018-03-27T02:22:24.095Z,319
2018-03-27T02:22:36.354Z,319
2018-03-27T02:22:48.492Z,319
2018-03-27T02:23:00.613Z,296
2018-03-27T02:23:12.788Z,319
2018-03-27T02:23:24.968Z,321
2018-03-27T02:23:37.114Z,322
2018-03-27T02:23:49.296Z,331
2018-03-27T02:24:01.441Z,333
2018-03-27T02:24:13.592Z,333
2018-03-27T02:24:25.740Z,360
2018-03-27T02:24:37.878Z,29
2018-03-27T02:24:50.008Z,360
2018-03-27T02:25:02.141Z,360
2018-03-27T02:25:14.275Z,336
2018-03-27T02:25:26.404Z,360
2018-03-27T02:25:38.563Z,355
2018-03-27T02:25:50.749Z,333
2018-03-27T02:26:02.884Z,355
2018-03-27T02:26:15.034Z,9
2018-03-27T02:26:27.178Z,17
2018-03-27T02:26:39.326Z,355
2018-03-27T02:26:51.468Z,329
2018-03-27T02:27:03.662Z,329
2018-03-27T02:27:15.802Z,329
2018-03-27T02:27:27.955Z,329
2018-03-27T02:27:40.105Z,329
2018-03-27T02:27:52.251Z,329
2018-03-27T02:28:04.411Z,332
2018-03-27T02:28:16.560Z,298
2018-03-27T02:28:28.710Z,286
2018-03-27T02:28:40.886Z,293
2018-03-27T02:28:53.040Z,302
2018-03-27T02:29:05.169Z,309
2018-03-27T02:29:17.344Z,296
2018-03-27T02:29:29.546Z,292
2018-03-27T02:29:41.688Z,284
2018-03-27T02:29:53.822Z,285
2018-03-27T02:30:05.962Z,291
2018-03-27T02:30:18.163Z,294
2018-03-27T02:30:30.457Z,296
2018-03-27T02:30:42.676Z,296
2018-03-27T02:30:54.835Z,296
2018-03-27T02:31:07.028Z,296
2018-03-27T02:31:19.180Z,296
2018-03-27T02:31:31.362Z,296
2018-03-27T02:31:43.553Z,296
2018-03-27T02:31:55.766Z,296
2018-03-27T02:32:07.994Z,296
2018-03-27T02:32:20.167Z,296
2018-03-27T02:32:32.335Z,296
2018-03-27T02:32:44.560Z,297
2018-03-27T02:32:56.723Z,297
2018-03-27T02:33:08.926Z,299
2018-03-27T02:33:21.121Z,299
2018-03-27T02:33:33.281Z,299
2018-03-27T02:33:45.446Z,360
2018-03-27T02:33:57.602Z,344
2018-03-27T02:34:09.770Z,323
2018-03-27T02:34:21.974Z,340
2018-03-27T02:34:34.159Z,53
2018-03-27T02:34:46.354Z,33
2018-03-27T02:34:59.053Z,317
2018-03-27T02:35:11.227Z,15
2018-03-27T02:35:23.391Z,331
2018-03-27T02:35:35.636Z,326
2018-03-27T02:35:47.830Z,348
2018-03-27T02:35:59.991Z,360
2018-03-27T02:36:12.147Z,317
2018-03-27T02:36:24.312Z,326
2018-03-27T02:36:36.577Z,326
2018-03-27T02:36:48.741Z,323
2018-03-27T02:37:00.914Z,309
2018-03-27T02:37:13.090Z,307
2018-03-27T02:37:25.300Z,302
2018-03-27T02:37:37.658Z,301
2018-03-27T02:37:49.799Z,291
2018-03-27T02:38:01.999Z,298
2018-03-27T02:38:14.200Z,310
2018-03-27T02:38:26.359Z,310
2018-03-27T02:38:38.546Z,316
2018-03-27T02:38:50.721Z,342
2018-03-27T02:39:02.892Z,337
2018-03-27T02:39:15.099Z,323
2018-03-27T02:39:27.277Z,294
2018-03-27T02:39:39.525Z,317
2018-03-27T02:39:51.730Z,320
2018-03-27T02:40:03.897Z,320
2018-03-27T02:40:16.116Z,320
2018-03-27T02:40:28.264Z,336
2018-03-27T02:40:40.758Z,321
2018-03-27T02:40:52.922Z,320
2018-03-27T02:41:05.286Z,319
2018-03-27T02:41:17.460Z,319
2018-03-27T02:41:29.622Z,304
2018-03-27T02:41:41.791Z,304
2018-03-27T02:41:53.967Z,304
2018-03-27T02:42:06.161Z,304
2018-03-27T02:42:18.316Z,302
2018-03-27T02:42:30.494Z,304
2018-03-27T02:42:42.660Z,313
2018-03-27T02:42:54.824Z,313
2018-03-27T02:43:06.990Z,313
2018-03-27T02:43:19.241Z,329
2018-03-27T02:43:31.421Z,329
2018-03-27T02:43:43.574Z,345
2018-03-27T02:43:55.951Z,322
2018-03-27T02:44:08.171Z,323
2018-03-27T02:44:20.316Z,321
2018-03-27T02:44:32.518Z,340
2018-03-27T02:44:44.679Z,345
2018-03-27T02:44:56.896Z,308
2018-03-27T02:45:09.072Z,315
2018-03-27T02:45:21.260Z,315
2018-03-27T02:45:33.436Z,305
2018-03-27T02:45:45.586Z,323
2018-03-27T02:45:57.757Z,309
2018-03-27T02:46:10.193Z,313
2018-03-27T02:46:22.369Z,317
2018-03-27T02:46:34.543Z,318
2018-03-27T02:47:17.780Z,360
2018-03-27T02:47:29.943Z,5
2018-03-27T02:47:42.150Z,360
2018-03-27T02:47:54.546Z,360
2018-03-27T02:48:06.700Z,360
2018-03-27T02:48:18.846Z,5
2018-03-27T02:48:30.984Z,360
2018-03-27T02:48:43.169Z,360
2018-03-27T02:48:55.492Z,360
2018-03-27T02:49:07.694Z,360
2018-03-27T02:49:20.921Z,360
2018-03-27T02:49:33.094Z,285
2018-03-27T02:49:45.244Z,292
2018-03-27T02:49:57.418Z,294
2018-03-27T02:50:09.602Z,301
2018-03-27T02:50:21.811Z,302
2018-03-27T02:50:33.991Z,308
2018-03-27T02:50:46.232Z,301